Airfield :
LOGIN :

Register | Disclaimer

   EN    FR    IT 

 










Legend :    VFR   Marginal VFR   IFR   Intensive IFR   Very Intensive IFR
Visi :
Ceiling :
>= 8 km
>= 3000ft
5 to 8 km
1000 to 3000 ft
1500m to 5 km
500 to 1000 ft
800 to 1500m
200 to 500 ft
< 800m
< 200 ft
Symbols :   Thunderstorms  Fog  Heavy snow  Heavy precipitations  Wind > 20 kt
SIGMETs :     Misc.  Thunderstorms  Icing  Turbulence  Mountain Waves  Volcanic Ashes






- Airport Elevation : 423 ft
- IATA code : PIS


LFBI - Poitiers

CURRENT METAR :
  • 212230Z AUTO 21021KT 7000 -RA BKN014/// OVC022/// 09/08 Q0995 TEMPO 2000 RA OVC005 BECMG 23020G35KT

EXPIRED METARs :
  • 212200Z AUTO 22022KT 9999 -RADZ BKN025/// BKN034/// OVC046/// 10/07 Q0995 TEMPO 2000 RA OVC005 BECMG 23020G35KT
  • 212130Z AUTO 22023KT 9999 BKN024/// BKN032/// BKN042/// 10/07 Q0995 TEMPO 2000 RA OVC005 BECMG 23020G35KT
  • 212100Z AUTO 22021G32KT 9999 FEW019/// SCT046/// OVC054/// 10/07 Q0995 TEMPO 2000 RA OVC005
  • 212030Z AUTO 22022KT 4900 RA BR FEW014/// SCT019/// BKN024/// 09/08 Q0995 TEMPO 2000 RA OVC005 BECMG 23020G35KT
  • 212000Z AUTO 22021KT 7000 -RA SCT023/// BKN033/// BKN043/// 10/08 Q0995 BECMG 23020G35KT

TAF AMD TAF LFBI
Valid from the 21 at 20:00 until the 22 at 18:00 UTC


212037Z 2120/2218 23020G35KT 9999 BKN015
TEMPO 2120/2204 2000 RA OVC005
FM221100 34020G30KT 4000 -RA BKN020
BECMG 2212/2214 9999 NSW
BECMG 2216/2218 24010KT



MET'MAP, your aeronautical weather chart ! - Copyright ORBIFLY December 2007 - Disclaimer

ORBIFLY MET'MAP TEAM :

Programming & Development : Alexandra Zaïnal
Concept & original design : Baudouin d'Aumeries
Assistance for programming : Marc-Olivier Méhu
Technical & hardware support : Manuel Goepfert

Contact : metmap@orbifly.com




SOURCES & CREDITS :

   NOAA